Time;durP1;ratioP1;P1;durP2;ratioP2;P2;SDS_P1;SDS_P2;PMS_P1;PMS_P2;Temp;Humidity;BMP_temperature;BMP_pressure;BME280_temperature;BME280_humidity;BME280_pressure;Samples;Min_cycle;Max_cycle;Signal;HPM_P1;HPM_P2
2023/07/14 00:00:31;;;;;;;11.07;6.22;;;16.30;99.90;;;;;;5077675;28;20112;-60
2023/07/14 00:02:58;;;;;;;10.65;6.00;;;16.30;99.90;;;;;;5077797;28;20120;-60
2023/07/14 00:05:28;;;;;;;10.70;5.28;;;16.30;99.90;;;;;;5078245;28;20044;-59
2023/07/14 00:07:55;;;;;;;9.95;6.00;;;16.30;99.90;;;;;;5076595;28;20052;-59
2023/07/14 00:10:30;;;;;;;9.68;6.10;;;16.20;99.90;;;;;;5077169;28;20051;-60
2023/07/14 00:13:01;;;;;;;10.60;6.07;;;16.20;99.90;;;;;;5077153;28;20040;-60
2023/07/14 00:15:28;;;;;;;11.65;5.95;;;16.20;99.90;;;;;;5077909;28;20036;-60
2023/07/14 00:18:22;;;;;;;11.60;6.00;;;16.20;99.90;;;;;;5077786;28;20585;-60
2023/07/14 00:20:48;;;;;;;9.88;6.07;;;16.20;99.90;;;;;;5081054;28;20063;-59
2023/07/14 00:23:15;;;;;;;11.98;6.18;;;16.10;99.90;;;;;;5084945;28;20040;-59
2023/07/14 00:25:42;;;;;;;14.32;6.82;;;16.10;99.90;;;;;;5083492;28;20037;-59
2023/07/14 00:28:16;;;;;;;9.13;5.53;;;16.00;99.90;;;;;;5084660;28;20043;-60
2023/07/14 00:30:43;;;;;;;13.90;6.13;;;16.10;99.90;;;;;;5084368;28;20089;-59
2023/07/14 00:33:17;;;;;;;11.93;5.72;;;16.00;99.90;;;;;;5083588;28;20040;-59
2023/07/14 00:35:44;;;;;;;9.48;6.35;;;16.00;99.90;;;;;;5084378;28;20036;-59
2023/07/14 00:38:10;;;;;;;11.95;5.60;;;16.00;99.90;;;;;;5082968;28;20037;-60
2023/07/14 00:40:40;;;;;;;10.63;6.25;;;16.00;99.90;;;;;;5084727;28;20412;-59
2023/07/14 00:43:18;;;;;;;10.77;6.13;;;15.90;99.90;;;;;;5083645;28;20048;-59
2023/07/14 00:45:46;;;;;;;13.35;6.15;;;15.80;99.90;;;;;;5083990;28;20503;-60
2023/07/14 00:48:15;;;;;;;10.73;6.47;;;15.90;99.90;;;;;;5084402;28;20036;-59
2023/07/14 00:51:02;;;;;;;10.13;5.75;;;15.90;99.90;;;;;;5081920;28;20119;-60
2023/07/14 00:53:33;;;;;;;11.15;6.45;;;15.90;99.90;;;;;;5084460;28;20051;-60
2023/07/14 00:56:08;;;;;;;9.05;6.20;;;15.80;99.90;;;;;;5083854;28;20099;-60
2023/07/14 00:58:34;;;;;;;10.82;6.28;;;15.80;99.90;;;;;;5083581;28;20464;-59
2023/07/14 01:01:00;;;;;;;11.95;6.20;;;15.90;99.90;;;;;;5084476;28;20484;-59
2023/07/14 01:03:26;;;;;;;12.90;6.53;;;15.90;99.90;;;;;;5083668;28;20547;-60
2023/07/14 01:05:52;;;;;;;10.18;6.57;;;15.80;99.90;;;;;;5084630;28;20127;-61
2023/07/14 01:08:19;;;;;;;12.27;6.35;;;15.80;99.90;;;;;;5082478;28;20141;-60
2023/07/14 01:10:46;;;;;;;9.93;6.40;;;15.80;99.90;;;;;;5084427;28;20114;-59
2023/07/14 01:13:12;;;;;;;10.73;6.50;;;15.80;99.90;;;;;;5083693;28;20044;-60
2023/07/14 01:15:40;;;;;;;11.73;6.38;;;15.80;99.90;;;;;;5083826;28;20048;-60
2023/07/14 01:18:07;;;;;;;12.68;6.80;;;15.80;99.90;;;;;;5084212;28;20072;-60
2023/07/14 01:20:35;;;;;;;12.45;7.07;;;15.80;99.90;;;;;;5083445;28;20048;-60
2023/07/14 01:23:21;;;;;;;13.23;6.90;;;15.70;99.90;;;;;;5084269;28;20510;-59
2023/07/14 01:26:21;;;;;;;13.25;6.78;;;15.70;99.90;;;;;;5083298;28;20059;-59
2023/07/14 01:28:47;;;;;;;10.15;6.43;;;15.70;99.90;;;;;;5081950;28;20083;-59
2023/07/14 01:31:19;;;;;;;12.32;7.55;;;15.60;99.90;;;;;;5081388;28;20051;-60
2023/07/14 01:33:45;;;;;;;16.02;7.90;;;15.50;99.90;;;;;;5079731;28;20088;-60
2023/07/14 01:36:11;;;;;;;11.52;6.70;;;15.60;99.90;;;;;;5080859;28;20052;-60
2023/07/14 01:38:38;;;;;;;9.90;7.05;;;15.60;99.90;;;;;;5079362;28;20045;-59
2023/07/14 01:41:05;;;;;;;13.13;7.25;;;15.60;99.90;;;;;;5080996;28;20041;-59
2023/07/14 01:43:32;;;;;;;12.43;7.25;;;15.60;99.90;;;;;;5080715;28;20503;-61
2023/07/14 01:46:01;;;;;;;12.38;7.38;;;15.60;99.90;;;;;;5080134;28;20048;-60
2023/07/14 01:48:48;;;;;;;11.65;7.88;;;15.60;99.90;;;;;;5080705;28;20113;-60
2023/07/14 01:51:15;;;;;;;14.10;8.45;;;15.60;99.90;;;;;;5079286;28;20049;-60
2023/07/14 01:53:52;;;;;;;14.75;8.52;;;15.50;99.90;;;;;;5080675;28;20040;-60
2023/07/14 01:56:20;;;;;;;14.55;8.18;;;15.50;99.90;;;;;;5080304;28;20430;-59
2023/07/14 01:59:09;;;;;;;15.10;8.85;;;15.50;99.90;;;;;;5079839;28;20044;-59
2023/07/14 02:01:36;;;;;;;14.20;8.30;;;15.50;99.90;;;;;;5080272;28;20490;-60
2023/07/14 02:04:05;;;;;;;14.70;8.65;;;15.50;99.90;;;;;;5078770;28;20131;-59
2023/07/14 02:06:32;;;;;;;18.85;8.57;;;15.40;99.90;;;;;;5080483;28;20063;-60
2023/07/14 02:08:59;;;;;;;13.70;8.65;;;15.50;99.90;;;;;;5079301;28;20049;-60
2023/07/14 02:11:27;;;;;;;12.23;8.48;;;15.40;99.90;;;;;;5079283;28;20048;-60
2023/07/14 02:13:55;;;;;;;16.38;8.80;;;15.40;99.90;;;;;;5080001;28;20538;-59
2023/07/14 02:16:22;;;;;;;13.77;8.48;;;15.40;99.90;;;;;;5079316;28;20501;-60
2023/07/14 02:18:49;;;;;;;14.95;9.88;;;15.30;99.90;;;;;;5079821;28;20057;-59
2023/07/14 02:21:25;;;;;;;16.75;9.43;;;15.30;99.90;;;;;;5078586;28;20101;-60
2023/07/14 02:23:51;;;;;;;15.15;8.48;;;15.40;99.90;;;;;;5079767;28;20040;-60
2023/07/14 02:26:32;;;;;;;12.95;8.60;;;15.40;99.90;;;;;;5079625;28;20139;-59
2023/07/14 02:28:58;;;;;;;13.40;8.95;;;15.30;99.90;;;;;;5078982;28;20051;-59
2023/07/14 02:31:38;;;;;;;13.55;8.88;;;15.40;99.90;;;;;;5079868;28;20063;-59
2023/07/14 02:34:04;;;;;;;14.95;8.48;;;15.40;99.90;;;;;;5078279;28;20096;-60
2023/07/14 02:36:56;;;;;;;13.13;8.88;;;15.40;99.90;;;;;;5079436;28;20042;-59
2023/07/14 02:39:22;;;;;;;13.40;8.20;;;15.40;99.90;;;;;;5077445;28;20068;-59
2023/07/14 02:41:51;;;;;;;13.93;9.30;;;15.30;99.90;;;;;;5078687;28;20037;-59
2023/07/14 02:44:19;;;;;;;15.93;8.27;;;15.40;99.90;;;;;;5079598;28;20044;-60
2023/07/14 02:47:00;;;;;;;13.35;8.50;;;15.30;99.90;;;;;;5078814;28;20037;-60
2023/07/14 02:49:25;;;;;;;13.52;9.10;;;15.30;99.90;;;;;;5074771;28;20047;-59
2023/07/14 02:51:51;;;;;;;15.55;9.43;;;15.40;99.90;;;;;;5069167;28;20040;-59
2023/07/14 02:54:17;;;;;;;13.60;8.68;;;15.30;99.90;;;;;;5078432;28;20052;-60
2023/07/14 02:56:43;;;;;;;14.55;9.25;;;15.30;99.90;;;;;;5078950;28;20512;-60
2023/07/14 02:59:13;;;;;;;14.70;9.15;;;15.30;99.90;;;;;;5078439;28;20080;-60
2023/07/14 03:01:39;;;;;;;14.63;9.25;;;15.30;99.90;;;;;;5079203;28;20131;-60
2023/07/14 03:04:05;;;;;;;14.70;9.35;;;15.30;99.90;;;;;;5077870;28;20062;-59
2023/07/14 03:06:31;;;;;;;14.45;8.73;;;15.20;99.90;;;;;;5079175;28;20048;-60
2023/07/14 03:08:57;;;;;;;16.05;9.30;;;15.20;99.90;;;;;;5078569;28;20044;-60
2023/07/14 03:11:23;;;;;;;15.27;9.60;;;15.20;99.90;;;;;;5078458;28;20044;-60
2023/07/14 03:13:49;;;;;;;14.50;9.35;;;15.20;99.90;;;;;;5071952;28;20074;-59
2023/07/14 03:16:15;;;;;;;14.85;9.43;;;15.30;99.90;;;;;;5068563;28;20072;-60
2023/07/14 03:18:41;;;;;;;13.07;9.05;;;15.30;99.90;;;;;;5067364;28;20063;-59
2023/07/14 03:21:08;;;;;;;17.70;9.85;;;15.20;99.90;;;;;;5057465;28;20048;-59
2023/07/14 03:23:34;;;;;;;14.65;9.75;;;15.20;99.90;;;;;;5058997;28;20045;-59
2023/07/14 03:26:02;;;;;;;16.65;9.80;;;15.20;99.90;;;;;;5076435;28;20048;-60
2023/07/14 03:28:29;;;;;;;15.90;9.57;;;15.20;99.90;;;;;;5078187;28;20036;-59
2023/07/14 03:30:55;;;;;;;14.40;9.25;;;15.20;99.90;;;;;;5078804;28;20040;-58
2023/07/14 03:33:21;;;;;;;13.98;9.30;;;15.20;99.90;;;;;;5077803;28;20092;-60
2023/07/14 03:35:47;;;;;;;16.55;9.18;;;15.10;99.90;;;;;;5078530;28;20051;-60
2023/07/14 03:38:13;;;;;;;19.30;9.93;;;15.10;99.90;;;;;;5077087;28;20047;-59
2023/07/14 03:40:39;;;;;;;15.40;8.80;;;15.10;99.90;;;;;;5078330;28;20044;-59
2023/07/14 03:43:05;;;;;;;16.40;9.90;;;15.00;99.90;;;;;;5077442;28;20047;-58
2023/07/14 03:45:31;;;;;;;14.85;9.20;;;15.10;99.90;;;;;;5078073;28;20566;-58
2023/07/14 03:47:57;;;;;;;13.32;9.13;;;15.10;99.90;;;;;;5078299;28;20040;-58
2023/07/14 03:50:23;;;;;;;16.02;9.02;;;15.10;99.90;;;;;;5076969;28;20066;-57
2023/07/14 03:52:49;;;;;;;15.02;9.32;;;15.10;99.90;;;;;;5078190;28;20107;-58
2023/07/14 03:55:15;;;;;;;14.85;9.10;;;15.00;99.90;;;;;;5076459;28;20429;-58
2023/07/14 03:57:41;;;;;;;19.38;9.55;;;15.00;99.90;;;;;;5078307;28;20063;-58
2023/07/14 04:00:17;;;;;;;18.08;10.13;;;15.10;99.90;;;;;;5077471;28;20048;-58
2023/07/14 04:02:44;;;;;;;13.13;9.57;;;15.00;99.90;;;;;;5077436;28;20048;-58
2023/07/14 04:05:11;;;;;;;14.57;8.38;;;15.10;99.90;;;;;;5078041;28;20103;-57
2023/07/14 04:07:38;;;;;;;13.93;8.88;;;15.10;99.90;;;;;;5076937;28;20048;-58
2023/07/14 04:10:05;;;;;;;14.35;8.77;;;15.10;99.90;;;;;;5077845;28;20040;-58
2023/07/14 04:12:32;;;;;;;14.10;8.88;;;15.10;99.90;;;;;;5075383;28;20044;-58
2023/07/14 04:14:58;;;;;;;12.88;8.63;;;15.10;99.90;;;;;;5078216;28;20120;-58
2023/07/14 04:17:23;;;;;;;14.10;8.00;;;15.20;99.90;;;;;;5077278;28;20051;-58
2023/07/14 04:19:50;;;;;;;12.50;8.43;;;15.30;99.90;;;;;;5077794;28;20110;-58
2023/07/14 04:22:18;;;;;;;13.35;8.57;;;15.20;99.90;;;;;;5077938;28;20451;-58
2023/07/14 04:24:44;;;;;;;16.30;8.95;;;15.20;99.90;;;;;;5077107;28;20773;-58
2023/07/14 04:27:12;;;;;;;11.63;7.78;;;15.20;99.90;;;;;;5077922;28;20047;-58
2023/07/14 04:29:38;;;;;;;14.77;7.60;;;15.20;99.90;;;;;;5076802;28;20498;-55
2023/07/14 04:32:05;;;;;;;15.75;8.75;;;15.20;99.90;;;;;;5076897;28;20045;-59
2023/07/14 04:34:31;;;;;;;12.13;7.45;;;15.30;99.90;;;;;;5077149;28;20066;-58
2023/07/14 04:36:56;;;;;;;13.52;7.90;;;15.30;99.90;;;;;;5077541;28;20131;-55
2023/07/14 04:39:25;;;;;;;15.38;7.90;;;15.30;99.90;;;;;;5076143;28;20089;-58
2023/07/14 04:41:52;;;;;;;15.52;7.43;;;15.40;99.90;;;;;;5076557;28;20407;-59
2023/07/14 04:44:18;;;;;;;14.27;8.20;;;15.40;99.90;;;;;;5077930;28;20059;-58
2023/07/14 04:46:45;;;;;;;12.10;7.55;;;15.40;99.90;;;;;;5076453;28;20052;-59
2023/07/14 04:49:11;;;;;;;14.18;8.02;;;15.40;99.90;;;;;;5077933;28;20086;-58
2023/07/14 04:51:38;;;;;;;14.93;7.53;;;15.50;99.90;;;;;;5077200;28;20068;-59
2023/07/14 04:54:05;;;;;;;12.85;7.85;;;15.50;99.90;;;;;;5077483;28;20076;-59
2023/07/14 04:56:34;;;;;;;11.40;7.05;;;15.60;99.90;;;;;;5077724;28;20088;-58
2023/07/14 04:59:00;;;;;;;12.93;6.95;;;15.60;99.90;;;;;;5077159;28;20039;-58
2023/07/14 05:01:27;;;;;;;13.15;7.07;;;15.60;99.90;;;;;;5077956;28;20104;-59
2023/07/14 05:03:54;;;;;;;14.05;7.00;;;15.80;99.90;;;;;;5076757;28;20041;-58
2023/07/14 05:06:20;;;;;;;10.93;6.22;;;15.80;99.90;;;;;;5080133;28;20043;-58
2023/07/14 05:08:45;;;;;;;14.05;6.97;;;15.90;99.90;;;;;;5080399;28;20036;-58
2023/07/14 05:11:11;;;;;;;14.15;7.07;;;16.00;99.90;;;;;;5079895;28;20443;-59
2023/07/14 05:13:37;;;;;;;10.93;6.05;;;16.00;99.90;;;;;;5081177;28;20040;-57
2023/07/14 05:16:03;;;;;;;14.18;6.18;;;16.10;99.90;;;;;;5080672;28;20048;-58
2023/07/14 05:18:29;;;;;;;11.45;6.82;;;16.10;99.90;;;;;;5081322;28;20032;-56
2023/07/14 05:21:00;;;;;;;12.93;6.20;;;16.20;99.90;;;;;;5079872;28;20048;-59
2023/07/14 05:23:26;;;;;;;13.63;6.68;;;16.30;99.90;;;;;;5081550;28;20411;-58
2023/07/14 05:25:52;;;;;;;12.98;6.63;;;16.40;99.90;;;;;;5080175;28;20068;-58
2023/07/14 05:28:18;;;;;;;11.82;5.80;;;16.40;99.90;;;;;;5080980;28;20122;-59
2023/07/14 05:30:44;;;;;;;13.00;5.75;;;16.40;99.90;;;;;;5081077;28;20084;-59
2023/07/14 05:33:12;;;;;;;12.90;5.53;;;16.60;99.90;;;;;;5080461;28;20467;-59
2023/07/14 05:35:38;;;;;;;11.55;5.53;;;16.70;99.90;;;;;;5081062;28;20056;-58
2023/07/14 05:38:05;;;;;;;18.15;7.40;;;16.70;99.90;;;;;;5076085;28;20135;-58
2023/07/14 05:40:31;;;;;;;13.43;5.68;;;16.80;99.90;;;;;;5076890;28;20055;-58
2023/07/14 05:42:58;;;;;;;14.13;6.10;;;16.90;99.90;;;;;;5076639;28;20059;-59
2023/07/14 05:45:24;;;;;;;11.63;5.10;;;16.90;99.90;;;;;;5075719;28;20045;-58
2023/07/14 05:47:49;;;;;;;9.98;5.38;;;17.00;99.90;;;;;;5077150;28;20381;-55
2023/07/14 05:50:16;;;;;;;12.40;5.15;;;17.10;99.90;;;;;;5074873;28;20554;-58
2023/07/14 05:52:42;;;;;;;9.10;4.43;;;17.20;99.90;;;;;;5077534;28;20055;-59
2023/07/14 05:55:09;;;;;;;13.10;5.25;;;17.20;99.90;;;;;;5075891;28;20053;-58
2023/07/14 05:57:36;;;;;;;9.73;5.47;;;17.30;99.90;;;;;;5077441;28;20079;-59
2023/07/14 06:00:06;;;;;;;12.02;5.82;;;17.30;99.90;;;;;;5076362;28;20076;-59
2023/07/14 06:02:32;;;;;;;11.00;5.13;;;17.30;99.90;;;;;;5076362;28;20067;-58
2023/07/14 06:05:00;;;;;;;11.55;4.85;;;17.40;99.90;;;;;;5076894;28;20472;-58
2023/07/14 06:07:25;;;;;;;10.02;4.82;;;17.50;99.90;;;;;;5076122;28;20127;-57
2023/07/14 06:09:51;;;;;;;11.13;5.70;;;17.50;99.90;;;;;;5077252;28;20079;-58
2023/07/14 06:12:17;;;;;;;12.55;5.43;;;17.70;99.90;;;;;;5074159;28;20512;-59
2023/07/14 06:14:43;;;;;;;12.10;4.90;;;17.70;99.90;;;;;;5076731;28;20045;-59
2023/07/14 06:17:10;;;;;;;10.32;4.50;;;17.80;99.90;;;;;;5074919;28;20080;-58
2023/07/14 06:19:37;;;;;;;10.52;4.70;;;17.80;99.90;;;;;;5076116;28;20060;-58
2023/07/14 06:22:04;;;;;;;14.55;4.60;;;17.90;99.90;;;;;;5076591;28;20036;-58
2023/07/14 06:24:30;;;;;;;9.93;4.72;;;18.00;99.90;;;;;;5075755;28;20098;-58
2023/07/14 06:26:55;;;;;;;10.90;4.32;;;18.00;99.90;;;;;;5076023;28;20100;-58
2023/07/14 06:29:22;;;;;;;11.15;4.13;;;18.10;99.90;;;;;;5075456;28;20072;-59
2023/07/14 06:31:48;;;;;;;9.45;3.75;;;18.10;99.90;;;;;;5076619;28;20078;-59
2023/07/14 06:34:13;;;;;;;9.52;4.55;;;18.20;99.90;;;;;;5075251;28;20052;-58
2023/07/14 06:36:39;;;;;;;9.88;3.90;;;18.20;99.90;;;;;;5075837;28;20048;-59
2023/07/14 06:39:06;;;;;;;10.70;4.40;;;18.40;99.90;;;;;;5075491;28;20048;-59
2023/07/14 06:41:32;;;;;;;10.60;4.82;;;18.40;99.90;;;;;;5074129;28;20044;-59
2023/07/14 06:44:00;;;;;;;10.10;4.55;;;18.50;99.90;;;;;;5076520;28;20047;-58
2023/07/14 06:46:26;;;;;;;9.38;4.57;;;18.40;99.90;;;;;;5076162;28;20048;-58
2023/07/14 06:48:52;;;;;;;13.27;4.70;;;18.50;99.90;;;;;;5079425;28;20521;-59
2023/07/14 06:51:17;;;;;;;11.85;4.07;;;18.50;99.90;;;;;;5076699;28;20048;-59
2023/07/14 06:53:43;;;;;;;13.23;4.70;;;18.60;99.90;;;;;;5078038;28;20097;-59
2023/07/14 06:56:09;;;;;;;9.65;4.07;;;18.80;99.90;;;;;;5072005;28;20068;-59
2023/07/14 06:58:35;;;;;;;11.50;4.28;;;18.80;99.90;;;;;;5061908;28;20432;-59
2023/07/14 07:01:01;;;;;;;10.80;4.40;;;18.80;99.90;;;;;;5058965;28;20055;-58
2023/07/14 07:03:28;;;;;;;10.82;3.88;;;19.00;99.90;;;;;;5057584;28;20097;-59
2023/07/14 07:05:55;;;;;;;13.55;4.60;;;19.10;99.90;;;;;;5059328;28;20036;-59
2023/07/14 07:08:21;;;;;;;9.95;3.72;;;19.10;99.90;;;;;;5067040;28;20056;-59
2023/07/14 07:10:48;;;;;;;9.18;3.72;;;19.20;99.90;;;;;;5078048;28;20666;-59
2023/07/14 07:13:14;;;;;;;9.73;3.53;;;19.30;99.90;;;;;;5071089;28;20051;-58
2023/07/14 07:15:40;;;;;;;11.65;4.03;;;19.20;99.90;;;;;;5060950;28;20041;-59
2023/07/14 07:18:07;;;;;;;10.52;3.75;;;19.20;99.90;;;;;;5058428;28;20042;-58
2023/07/14 07:20:36;;;;;;;9.48;3.60;;;19.20;99.90;;;;;;5056556;28;20074;-56
2023/07/14 07:23:01;;;;;;;9.75;3.72;;;19.40;99.90;;;;;;5058827;28;20102;-58
2023/07/14 07:25:27;;;;;;;8.80;3.17;;;19.40;99.90;;;;;;5057113;28;20131;-58
2023/07/14 07:27:53;;;;;;;7.80;3.20;;;19.40;99.90;;;;;;5058447;28;20060;-58
2023/07/14 07:30:18;;;;;;;6.53;2.83;;;19.30;99.90;;;;;;5056711;28;20509;-58
2023/07/14 07:32:46;;;;;;;7.85;2.83;;;19.30;99.90;;;;;;5057536;28;20052;-58
2023/07/14 07:35:11;;;;;;;10.30;3.45;;;19.50;99.90;;;;;;5060495;28;20068;-58
2023/07/14 07:37:37;;;;;;;10.60;4.03;;;19.60;99.90;;;;;;5067461;28;20041;-59
2023/07/14 07:40:04;;;;;;;13.15;3.70;;;19.70;99.90;;;;;;5065339;28;20037;-59
2023/07/14 07:42:30;;;;;;;10.90;4.22;;;19.90;99.90;;;;;;5068827;28;20462;-58
2023/07/14 07:44:56;;;;;;;9.23;4.43;;;19.90;99.90;;;;;;5066445;28;20079;-58
2023/07/14 07:47:21;;;;;;;9.25;4.85;;;19.70;99.90;;;;;;5067525;28;20068;-58
2023/07/14 07:49:47;;;;;;;10.57;4.50;;;19.80;99.90;;;;;;5066578;28;20691;-58
2023/07/14 07:52:13;;;;;;;9.63;4.50;;;19.90;99.90;;;;;;5067116;28;20385;-59
2023/07/14 07:54:39;;;;;;;10.80;5.57;;;20.00;99.90;;;;;;5062980;28;20558;-58
2023/07/14 07:57:07;;;;;;;9.68;4.97;;;20.20;99.90;;;;;;5065505;28;20029;-59
2023/07/14 07:59:33;;;;;;;10.30;4.50;;;20.20;99.90;;;;;;5056528;28;20049;-59
2023/07/14 08:01:59;;;;;;;9.52;4.78;;;20.10;99.90;;;;;;5065063;28;20044;-59
2023/07/14 08:04:26;;;;;;;11.50;5.65;;;20.20;99.90;;;;;;5075522;28;20067;-59
2023/07/14 08:06:53;;;;;;;10.23;4.30;;;20.20;99.90;;;;;;5074719;28;20045;-59
2023/07/14 08:09:19;;;;;;;10.05;4.65;;;20.20;99.90;;;;;;5073603;28;20040;-59
2023/07/14 08:11:45;;;;;;;8.60;4.15;;;20.20;99.90;;;;;;5061985;28;20121;-59
2023/07/14 08:14:15;;;;;;;9.27;4.15;;;20.20;99.20;;;;;;5064452;28;20051;-58
2023/07/14 08:16:41;;;;;;;7.57;2.83;;;20.20;99.30;;;;;;5076243;28;20044;-59
2023/07/14 08:19:07;;;;;;;8.90;3.13;;;20.30;98.90;;;;;;5077596;28;20059;-58
2023/07/14 08:21:36;;;;;;;8.07;3.13;;;20.40;98.50;;;;;;5076814;28;20409;-59
2023/07/14 08:24:02;;;;;;;7.95;2.78;;;20.30;97.20;;;;;;5074670;28;20044;-59
2023/07/14 08:26:28;;;;;;;6.50;2.70;;;20.30;96.80;;;;;;5061506;28;20048;-59
2023/07/14 08:28:53;;;;;;;6.95;3.00;;;20.50;96.70;;;;;;5076733;28;20048;-58
2023/07/14 08:31:19;;;;;;;7.03;3.38;;;20.50;94.00;;;;;;5077261;28;20051;-59
2023/07/14 08:33:45;;;;;;;10.65;4.80;;;20.50;93.40;;;;;;5068437;28;20090;-59
2023/07/14 08:36:12;;;;;;;9.13;3.10;;;20.50;92.20;;;;;;5058969;28;20068;-59
2023/07/14 08:38:39;;;;;;;9.40;3.42;;;20.50;93.60;;;;;;5055076;28;20045;-59
2023/07/14 08:41:10;;;;;;;10.77;4.93;;;20.70;93.30;;;;;;5058559;28;20048;-59
2023/07/14 08:44:00;;;;;;;7.32;2.95;;;20.70;94.60;;;;;;5060644;28;20057;-58
2023/07/14 08:46:40;;;;;;;7.93;3.30;;;20.70;93.30;;;;;;5066555;28;20055;-59
2023/07/14 08:49:23;;;;;;;8.20;4.00;;;20.90;92.90;;;;;;5081002;28;20671;-59
2023/07/14 08:52:04;;;;;;;8.15;3.47;;;21.20;91.90;;;;;;5081077;28;20090;-59
2023/07/14 08:54:47;;;;;;;7.88;3.15;;;21.20;86.90;;;;;;5080169;28;20088;-59
2023/07/14 08:57:19;;;;;;;6.30;2.70;;;21.10;89.80;;;;;;5073379;28;20044;-58
2023/07/14 08:59:46;;;;;;;6.90;2.50;;;21.20;86.20;;;;;;5066503;28;20040;-59
2023/07/14 09:02:19;;;;;;;6.47;2.70;;;21.00;90.70;;;;;;5073702;28;20048;-58
2023/07/14 09:04:58;;;;;;;7.32;2.35;;;20.90;90.40;;;;;;5067797;28;20273;-59
2023/07/14 09:07:24;;;;;;;6.00;2.60;;;20.90;84.80;;;;;;5068993;28;20052;-59
2023/07/14 09:09:50;;;;;;;8.02;2.58;;;20.70;88.70;;;;;;5070635;28;20062;-59
2023/07/14 09:12:51;;;;;;;8.23;3.10;;;20.60;89.90;;;;;;5074053;28;20061;-59
2023/07/14 09:15:22;;;;;;;5.70;2.70;;;20.20;85.30;;;;;;5072639;28;20052;-59
2023/07/14 09:18:22;;;;;;;6.70;2.70;;;20.20;88.60;;;;;;5077097;28;20052;-58
2023/07/14 09:21:13;;;;;;;7.57;2.97;;;20.50;87.30;;;;;;5077960;28;20059;-59
2023/07/14 09:23:39;;;;;;;6.47;2.35;;;20.90;83.80;;;;;;5073867;28;20048;-59
2023/07/14 09:26:33;;;;;;;7.50;2.40;;;20.90;80.70;;;;;;5079916;28;20096;-58
2023/07/14 09:29:18;;;;;;;5.43;1.83;;;21.20;77.20;;;;;;5075615;28;20050;-59
2023/07/14 09:32:16;;;;;;;10.90;2.25;;;21.30;74.90;;;;;;5077827;28;20094;-59
2023/07/14 09:34:58;;;;;;;6.97;2.75;;;21.50;74.40;;;;;;5075290;28;20061;-59
2023/07/14 09:37:55;;;;;;;6.15;2.47;;;21.50;74.30;;;;;;5071015;28;20052;-59
2023/07/14 09:40:28;;;;;;;8.45;2.78;;;21.60;72.40;;;;;;5060589;28;20076;-59
2023/07/14 09:42:56;;;;;;;6.30;2.42;;;21.70;72.30;;;;;;5060000;28;20041;-59
2023/07/14 09:45:33;;;;;;;6.15;2.33;;;22.00;70.70;;;;;;5060354;28;20431;-59
2023/07/14 09:48:15;;;;;;;6.10;2.42;;;22.30;70.30;;;;;;5059850;28;20049;-59
2023/07/14 09:51:04;;;;;;;7.35;2.38;;;22.10;69.00;;;;;;5067024;28;20049;-59
2023/07/14 09:53:32;;;;;;;6.03;2.58;;;22.30;67.20;;;;;;5074653;28;20086;-59
2023/07/14 09:56:26;;;;;;;8.15;2.80;;;22.50;69.10;;;;;;5079661;28;20339;-60
2023/07/14 09:59:02;;;;;;;7.22;2.60;;;22.60;63.50;;;;;;5079377;28;20048;-59
2023/07/14 10:01:31;;;;;;;6.70;2.53;;;22.50;64.20;;;;;;5070200;28;20040;-59
2023/07/14 10:04:08;;;;;;;8.30;3.17;;;22.60;66.30;;;;;;5067432;28;20377;-59
2023/07/14 10:06:34;;;;;;;7.95;3.10;;;22.00;68.30;;;;;;5062719;28;20493;-59
2023/07/14 10:09:09;;;;;;;6.45;3.22;;;21.60;72.10;;;;;;5059802;28;20068;-59
2023/07/14 10:11:52;;;;;;;9.23;2.90;;;21.40;70.20;;;;;;5076692;28;20079;-59
2023/07/14 10:14:45;;;;;;;9.30;2.58;;;21.30;70.40;;;;;;5079195;28;20052;-59
2023/07/14 10:17:24;;;;;;;7.18;2.50;;;21.20;75.70;;;;;;5079325;28;20080;-59
2023/07/14 10:19:50;;;;;;;6.35;2.70;;;21.20;77.10;;;;;;5072616;28;20060;-59
2023/07/14 10:22:22;;;;;;;7.97;3.05;;;21.30;72.30;;;;;;5067853;28;20036;-59
2023/07/14 10:24:56;;;;;;;7.15;2.67;;;21.20;73.00;;;;;;5066167;28;20606;-60
2023/07/14 10:27:28;;;;;;;8.82;2.67;;;21.10;73.00;;;;;;5073199;28;20060;-59
2023/07/14 10:30:05;;;;;;;7.28;2.72;;;21.20;74.40;;;;;;5058746;28;20049;-59
2023/07/14 10:32:50;;;;;;;9.20;3.22;;;21.30;75.70;;;;;;5059511;28;20127;-59
2023/07/14 10:35:25;;;;;;;7.15;2.97;;;21.70;76.20;;;;;;5066511;28;20044;-59
2023/07/14 10:38:04;;;;;;;7.57;2.90;;;22.30;73.40;;;;;;5074848;28;20048;-59
2023/07/14 10:40:50;;;;;;;6.90;3.28;;;22.60;68.10;;;;;;5070960;28;20056;-59
2023/07/14 10:43:21;;;;;;;7.85;3.20;;;22.60;68.00;;;;;;5058959;28;20044;-58
2023/07/14 10:45:58;;;;;;;8.32;3.05;;;22.60;69.20;;;;;;5058384;28;20053;-59
2023/07/14 10:48:32;;;;;;;7.63;3.30;;;22.70;68.00;;;;;;5058940;28;20045;-59
2023/07/14 10:51:03;;;;;;;8.95;3.22;;;22.90;64.50;;;;;;5075835;28;20045;-59
2023/07/14 10:53:44;;;;;;;10.88;3.40;;;22.60;65.20;;;;;;5078901;28;20037;-59
2023/07/14 10:56:33;;;;;;;10.05;3.80;;;22.10;69.20;;;;;;5078702;28;20044;-59
2023/07/14 10:59:08;;;;;;;9.73;3.38;;;22.00;71.30;;;;;;5078065;28;20335;-59
2023/07/14 11:01:40;;;;;;;7.78;3.03;;;21.80;72.30;;;;;;5074552;28;20036;-59
2023/07/14 11:04:32;;;;;;;8.32;3.05;;;21.70;74.40;;;;;;5065634;28;20083;-59
2023/07/14 11:07:00;;;;;;;8.65;3.35;;;21.80;75.00;;;;;;5055180;28;20056;-59
2023/07/14 11:09:28;;;;;;;7.43;3.97;;;21.80;76.00;;;;;;5058662;28;20520;-59
2023/07/14 11:12:23;;;;;;;10.50;3.75;;;21.80;76.50;;;;;;5057946;28;20645;-59
2023/07/14 11:15:12;;;;;;;11.10;3.75;;;22.00;73.90;;;;;;5057625;28;20112;-60
2023/07/14 11:17:59;;;;;;;6.90;3.65;;;22.00;74.10;;;;;;5055510;28;20091;-60
2023/07/14 11:21:07;;;;;;;8.05;3.10;;;22.20;70.00;;;;;;5067574;28;20065;-59
2023/07/14 11:23:45;;;;;;;6.90;3.03;;;22.30;72.50;;;;;;5035596;28;20054;-60
2023/07/14 11:27:00;;;;;;;7.85;3.22;;;22.40;69.20;;;;;;5047618;28;20064;-59
2023/07/14 11:29:30;;;;;;;7.60;3.08;;;22.40;65.40;;;;;;5041091;28;20053;-60
2023/07/14 11:31:59;;;;;;;9.68;3.50;;;22.10;66.30;;;;;;5075952;28;20037;-59
2023/07/14 11:34:42;;;;;;;10.13;6.15;;;21.80;69.30;;;;;;5070592;28;20388;-59
2023/07/14 11:37:36;;;;;;;7.78;3.80;;;21.90;72.30;;;;;;5057431;28;20517;-59
2023/07/14 11:40:10;;;;;;;6.55;3.22;;;22.10;69.40;;;;;;5065273;28;20045;-59
2023/07/14 11:42:38;;;;;;;8.73;3.28;;;22.00;67.00;;;;;;5066012;28;20045;-63
2023/07/14 11:45:19;;;;;;;8.38;3.63;;;22.30;70.40;;;;;;5063594;28;20040;-59
2023/07/14 11:47:45;;;;;;;10.23;3.47;;;22.40;67.80;;;;;;5065158;28;20060;-59
2023/07/14 11:50:17;;;;;;;7.22;3.08;;;22.90;71.50;;;;;;5065558;28;20040;-59
2023/07/14 11:53:21;;;;;;;9.95;2.90;;;22.80;61.80;;;;;;5069447;28;20044;-59
2023/07/14 11:56:11;;;;;;;6.57;2.78;;;23.00;60.40;;;;;;5068704;28;20084;-59
2023/07/14 11:58:36;;;;;;;7.43;3.10;;;23.30;61.40;;;;;;5068065;28;20044;-59
2023/07/14 12:01:17;;;;;;;7.13;2.80;;;23.30;57.00;;;;;;5057707;28;20106;-59
2023/07/14 12:03:52;;;;;;;10.23;3.47;;;23.20;56.20;;;;;;5059428;28;20499;-59
2023/07/14 12:06:21;;;;;;;7.40;2.97;;;22.90;57.40;;;;;;5076924;28;20372;-59
2023/07/14 12:09:04;;;;;;;6.57;2.70;;;22.70;56.90;;;;;;5075881;28;20087;-59
2023/07/14 12:11:39;;;;;;;8.98;3.40;;;23.00;60.10;;;;;;5076598;28;20478;-59
2023/07/14 12:14:43;;;;;;;8.73;3.17;;;23.10;60.90;;;;;;5078101;28;20067;-59
2023/07/14 12:17:40;;;;;;;7.57;2.83;;;23.00;57.90;;;;;;5073071;28;20055;-59
2023/07/14 12:20:12;;;;;;;6.93;2.92;;;22.90;55.80;;;;;;5074131;28;20049;-59
2023/07/14 12:22:40;;;;;;;9.02;2.92;;;22.90;58.20;;;;;;5070395;28;20057;-59
2023/07/14 12:25:18;;;;;;;6.90;2.83;;;22.70;59.10;;;;;;5056680;28;20056;-59
2023/07/14 12:27:52;;;;;;;10.05;3.35;;;22.90;63.00;;;;;;5056595;28;20079;-59
2023/07/14 12:30:29;;;;;;;7.97;3.08;;;23.00;65.20;;;;;;5057269;28;20078;-59
2023/07/14 12:33:01;;;;;;;8.55;3.10;;;23.10;60.50;;;;;;5056933;28;20044;-59
2023/07/14 12:35:28;;;;;;;7.75;3.08;;;23.00;59.90;;;;;;5068322;28;20501;-60
2023/07/14 12:37:54;;;;;;;8.00;3.17;;;23.10;59.60;;;;;;5063354;28;20071;-60
2023/07/14 12:40:25;;;;;;;7.97;2.97;;;23.20;57.90;;;;;;5072284;28;20508;-59
2023/07/14 12:42:52;;;;;;;7.78;3.25;;;23.10;55.70;;;;;;5062262;28;20048;-60
2023/07/14 12:45:20;;;;;;;7.78;3.40;;;22.80;61.20;;;;;;5070915;28;20075;-60
2023/07/14 12:47:48;;;;;;;7.00;2.80;;;22.80;62.80;;;;;;5068663;28;20071;-60
2023/07/14 12:50:17;;;;;;;7.07;3.20;;;22.80;63.50;;;;;;5063977;28;20037;-60
2023/07/14 12:52:44;;;;;;;8.77;3.28;;;22.60;63.10;;;;;;5058540;28;20048;-60
2023/07/14 12:55:16;;;;;;;8.38;3.13;;;22.80;66.60;;;;;;5076249;28;20036;-61
2023/07/14 12:57:42;;;;;;;9.98;3.47;;;23.00;61.70;;;;;;5077753;28;20074;-60
2023/07/14 13:00:23;;;;;;;8.00;3.03;;;23.10;61.40;;;;;;5067750;28;20076;-59